sensor_id;sensor_type;location;lat;lon;timestamp;P1;durP1;ratioP1;P2;durP2;ratioP2
56075;SDS011;41951;49.022;12.066;2024-01-30T00:01:05;15.18;;;8.95;;
56075;SDS011;41951;49.022;12.066;2024-01-30T00:03:31;13.80;;;8.35;;
56075;SDS011;41951;49.022;12.066;2024-01-30T00:05:56;17.77;;;9.77;;
56075;SDS011;41951;49.022;12.066;2024-01-30T00:08:22;18.77;;;8.25;;
56075;SDS011;41951;49.022;12.066;2024-01-30T00:10:47;17.88;;;8.30;;
56075;SDS011;41951;49.022;12.066;2024-01-30T00:13:13;17.30;;;9.88;;
56075;SDS011;41951;49.022;12.066;2024-01-30T00:15:41;14.77;;;8.70;;
56075;SDS011;41951;49.022;12.066;2024-01-30T00:18:06;17.17;;;9.30;;
56075;SDS011;41951;49.022;12.066;2024-01-30T00:20:32;18.45;;;9.02;;
56075;SDS011;41951;49.022;12.066;2024-01-30T00:22:58;17.50;;;8.77;;
56075;SDS011;41951;49.022;12.066;2024-01-30T00:25:23;15.32;;;8.88;;
56075;SDS011;41951;49.022;12.066;2024-01-30T00:27:49;15.65;;;9.70;;
56075;SDS011;41951;49.022;12.066;2024-01-30T00:30:14;15.48;;;8.73;;
56075;SDS011;41951;49.022;12.066;2024-01-30T00:32:40;13.60;;;8.82;;
56075;SDS011;41951;49.022;12.066;2024-01-30T00:35:06;17.30;;;8.95;;
56075;SDS011;41951;49.022;12.066;2024-01-30T00:37:31;17.13;;;9.75;;
56075;SDS011;41951;49.022;12.066;2024-01-30T00:39:57;15.73;;;8.60;;
56075;SDS011;41951;49.022;12.066;2024-01-30T00:42:22;17.83;;;9.27;;
56075;SDS011;41951;49.022;12.066;2024-01-30T00:44:49;18.65;;;9.65;;
56075;SDS011;41951;49.022;12.066;2024-01-30T00:47:15;20.55;;;10.15;;
56075;SDS011;41951;49.022;12.066;2024-01-30T00:49:40;18.05;;;8.70;;
56075;SDS011;41951;49.022;12.066;2024-01-30T00:52:06;18.90;;;9.30;;
56075;SDS011;41951;49.022;12.066;2024-01-30T00:54:31;15.88;;;9.40;;
56075;SDS011;41951;49.022;12.066;2024-01-30T00:56:57;16.17;;;8.90;;
56075;SDS011;41951;49.022;12.066;2024-01-30T00:59:23;17.98;;;9.38;;
56075;SDS011;41951;49.022;12.066;2024-01-30T01:01:48;16.27;;;9.15;;
56075;SDS011;41951;49.022;12.066;2024-01-30T01:04:14;15.82;;;9.65;;
56075;SDS011;41951;49.022;12.066;2024-01-30T01:06:40;21.45;;;9.82;;
56075;SDS011;41951;49.022;12.066;2024-01-30T01:09:07;18.63;;;10.40;;
56075;SDS011;41951;49.022;12.066;2024-01-30T01:11:33;17.25;;;9.35;;
56075;SDS011;41951;49.022;12.066;2024-01-30T01:13:58;15.50;;;8.80;;
56075;SDS011;41951;49.022;12.066;2024-01-30T01:16:24;17.65;;;10.00;;
56075;SDS011;41951;49.022;12.066;2024-01-30T01:18:49;17.00;;;9.45;;
56075;SDS011;41951;49.022;12.066;2024-01-30T01:21:15;17.65;;;9.90;;
56075;SDS011;41951;49.022;12.066;2024-01-30T01:23:41;18.13;;;9.57;;
56075;SDS011;41951;49.022;12.066;2024-01-30T01:26:07;26.40;;;10.02;;
56075;SDS011;41951;49.022;12.066;2024-01-30T01:28:34;20.00;;;10.90;;
56075;SDS011;41951;49.022;12.066;2024-01-30T01:31:00;17.73;;;8.80;;
56075;SDS011;41951;49.022;12.066;2024-01-30T01:33:30;21.55;;;10.15;;
56075;SDS011;41951;49.022;12.066;2024-01-30T01:35:57;14.65;;;9.50;;
56075;SDS011;41951;49.022;12.066;2024-01-30T01:38:23;16.75;;;10.38;;
56075;SDS011;41951;49.022;12.066;2024-01-30T01:40:49;18.25;;;9.90;;
56075;SDS011;41951;49.022;12.066;2024-01-30T01:43:15;21.30;;;9.98;;
56075;SDS011;41951;49.022;12.066;2024-01-30T01:45:40;16.55;;;9.20;;
56075;SDS011;41951;49.022;12.066;2024-01-30T01:48:06;17.95;;;9.65;;
56075;SDS011;41951;49.022;12.066;2024-01-30T01:50:33;20.52;;;9.57;;
56075;SDS011;41951;49.022;12.066;2024-01-30T01:52:59;17.23;;;10.18;;
56075;SDS011;41951;49.022;12.066;2024-01-30T01:55:25;20.40;;;11.63;;
56075;SDS011;41951;49.022;12.066;2024-01-30T01:57:53;18.08;;;10.05;;
56075;SDS011;41951;49.022;12.066;2024-01-30T02:00:19;19.92;;;10.25;;
56075;SDS011;41951;49.022;12.066;2024-01-30T02:02:45;17.42;;;10.95;;
56075;SDS011;41951;49.022;12.066;2024-01-30T02:05:12;16.65;;;9.55;;
56075;SDS011;41951;49.022;12.066;2024-01-30T02:07:37;19.55;;;8.90;;
56075;SDS011;41951;49.022;12.066;2024-01-30T02:10:04;17.73;;;8.75;;
56075;SDS011;41951;49.022;12.066;2024-01-30T02:12:30;20.70;;;10.25;;
56075;SDS011;41951;49.022;12.066;2024-01-30T02:14:55;17.00;;;9.88;;
56075;SDS011;41951;49.022;12.066;2024-01-30T02:17:21;21.10;;;9.88;;
56075;SDS011;41951;49.022;12.066;2024-01-30T02:19:48;16.58;;;9.68;;
56075;SDS011;41951;49.022;12.066;2024-01-30T02:22:14;22.35;;;9.98;;
56075;SDS011;41951;49.022;12.066;2024-01-30T02:24:40;19.05;;;10.43;;
56075;SDS011;41951;49.022;12.066;2024-01-30T02:27:05;18.98;;;10.35;;
56075;SDS011;41951;49.022;12.066;2024-01-30T02:29:31;19.38;;;10.38;;
56075;SDS011;41951;49.022;12.066;2024-01-30T02:31:56;20.85;;;10.32;;
56075;SDS011;41951;49.022;12.066;2024-01-30T02:34:23;17.40;;;10.75;;
56075;SDS011;41951;49.022;12.066;2024-01-30T02:36:48;20.73;;;10.45;;
56075;SDS011;41951;49.022;12.066;2024-01-30T02:39:14;19.95;;;10.40;;
56075;SDS011;41951;49.022;12.066;2024-01-30T02:41:40;18.10;;;9.98;;
56075;SDS011;41951;49.022;12.066;2024-01-30T02:44:05;21.25;;;10.75;;
56075;SDS011;41951;49.022;12.066;2024-01-30T02:46:31;25.90;;;10.88;;
56075;SDS011;41951;49.022;12.066;2024-01-30T02:48:56;19.92;;;10.90;;
56075;SDS011;41951;49.022;12.066;2024-01-30T02:51:22;18.65;;;9.85;;
56075;SDS011;41951;49.022;12.066;2024-01-30T02:53:48;18.55;;;10.50;;
56075;SDS011;41951;49.022;12.066;2024-01-30T02:56:13;19.17;;;9.82;;
56075;SDS011;41951;49.022;12.066;2024-01-30T02:58:39;17.00;;;10.93;;
56075;SDS011;41951;49.022;12.066;2024-01-30T03:01:05;21.63;;;10.50;;
56075;SDS011;41951;49.022;12.066;2024-01-30T03:03:31;19.30;;;10.65;;
56075;SDS011;41951;49.022;12.066;2024-01-30T03:05:57;19.98;;;11.35;;
56075;SDS011;41951;49.022;12.066;2024-01-30T03:08:22;17.05;;;9.80;;
56075;SDS011;41951;49.022;12.066;2024-01-30T03:10:48;22.27;;;11.43;;
56075;SDS011;41951;49.022;12.066;2024-01-30T03:13:14;22.20;;;11.82;;
56075;SDS011;41951;49.022;12.066;2024-01-30T03:15:39;21.13;;;11.65;;
56075;SDS011;41951;49.022;12.066;2024-01-30T03:18:05;22.70;;;11.35;;
56075;SDS011;41951;49.022;12.066;2024-01-30T03:20:31;18.05;;;11.27;;
56075;SDS011;41951;49.022;12.066;2024-01-30T03:22:56;19.08;;;11.45;;
56075;SDS011;41951;49.022;12.066;2024-01-30T03:25:24;22.10;;;11.57;;
56075;SDS011;41951;49.022;12.066;2024-01-30T03:27:50;22.08;;;11.40;;
56075;SDS011;41951;49.022;12.066;2024-01-30T03:30:16;20.60;;;12.35;;
56075;SDS011;41951;49.022;12.066;2024-01-30T03:32:42;25.08;;;12.20;;
56075;SDS011;41951;49.022;12.066;2024-01-30T03:35:08;22.45;;;12.32;;
56075;SDS011;41951;49.022;12.066;2024-01-30T03:37:34;21.90;;;11.90;;
56075;SDS011;41951;49.022;12.066;2024-01-30T03:39:59;21.73;;;12.00;;
56075;SDS011;41951;49.022;12.066;2024-01-30T03:42:25;26.90;;;12.45;;
56075;SDS011;41951;49.022;12.066;2024-01-30T03:44:51;23.48;;;11.55;;
56075;SDS011;41951;49.022;12.066;2024-01-30T03:47:18;24.05;;;11.93;;
56075;SDS011;41951;49.022;12.066;2024-01-30T03:49:45;22.48;;;11.35;;
56075;SDS011;41951;49.022;12.066;2024-01-30T03:52:10;22.63;;;11.50;;
56075;SDS011;41951;49.022;12.066;2024-01-30T03:54:36;22.88;;;11.90;;
56075;SDS011;41951;49.022;12.066;2024-01-30T03:57:01;21.88;;;11.85;;
56075;SDS011;41951;49.022;12.066;2024-01-30T03:59:27;23.23;;;11.75;;
56075;SDS011;41951;49.022;12.066;2024-01-30T04:01:53;27.48;;;11.77;;
56075;SDS011;41951;49.022;12.066;2024-01-30T04:04:19;20.08;;;12.27;;
56075;SDS011;41951;49.022;12.066;2024-01-30T04:06:45;19.88;;;11.57;;
56075;SDS011;41951;49.022;12.066;2024-01-30T04:09:11;26.05;;;12.50;;
56075;SDS011;41951;49.022;12.066;2024-01-30T04:11:38;19.95;;;11.20;;
56075;SDS011;41951;49.022;12.066;2024-01-30T04:14:04;21.27;;;11.75;;
56075;SDS011;41951;49.022;12.066;2024-01-30T04:16:29;18.90;;;11.60;;
56075;SDS011;41951;49.022;12.066;2024-01-30T04:18:55;27.80;;;12.45;;
56075;SDS011;41951;49.022;12.066;2024-01-30T04:21:21;25.50;;;11.77;;
56075;SDS011;41951;49.022;12.066;2024-01-30T04:23:47;22.20;;;12.88;;
56075;SDS011;41951;49.022;12.066;2024-01-30T04:26:13;19.48;;;11.02;;
56075;SDS011;41951;49.022;12.066;2024-01-30T04:28:41;23.15;;;12.45;;
56075;SDS011;41951;49.022;12.066;2024-01-30T04:31:07;24.60;;;11.93;;
56075;SDS011;41951;49.022;12.066;2024-01-30T04:33:32;23.13;;;11.30;;
56075;SDS011;41951;49.022;12.066;2024-01-30T04:35:58;22.88;;;11.55;;
56075;SDS011;41951;49.022;12.066;2024-01-30T04:38:23;24.60;;;11.90;;
56075;SDS011;41951;49.022;12.066;2024-01-30T04:40:49;25.42;;;11.65;;
56075;SDS011;41951;49.022;12.066;2024-01-30T04:43:14;21.55;;;11.80;;
56075;SDS011;41951;49.022;12.066;2024-01-30T04:45:40;25.63;;;12.18;;
56075;SDS011;41951;49.022;12.066;2024-01-30T04:48:06;20.48;;;12.32;;
56075;SDS011;41951;49.022;12.066;2024-01-30T04:50:32;20.85;;;11.00;;
56075;SDS011;41951;49.022;12.066;2024-01-30T04:52:58;24.92;;;12.02;;
56075;SDS011;41951;49.022;12.066;2024-01-30T04:55:23;20.00;;;10.95;;
56075;SDS011;41951;49.022;12.066;2024-01-30T04:57:49;29.17;;;12.20;;
56075;SDS011;41951;49.022;12.066;2024-01-30T05:00:14;21.27;;;12.93;;
56075;SDS011;41951;49.022;12.066;2024-01-30T05:02:40;23.33;;;12.45;;
56075;SDS011;41951;49.022;12.066;2024-01-30T05:05:06;21.63;;;11.93;;
56075;SDS011;41951;49.022;12.066;2024-01-30T05:07:32;26.25;;;12.05;;
56075;SDS011;41951;49.022;12.066;2024-01-30T05:09:58;20.02;;;11.55;;
56075;SDS011;41951;49.022;12.066;2024-01-30T05:12:24;23.00;;;13.07;;
56075;SDS011;41951;49.022;12.066;2024-01-30T05:14:49;25.10;;;12.88;;
56075;SDS011;41951;49.022;12.066;2024-01-30T05:17:15;21.65;;;12.93;;
56075;SDS011;41951;49.022;12.066;2024-01-30T05:19:40;27.77;;;12.65;;
56075;SDS011;41951;49.022;12.066;2024-01-30T05:22:06;20.70;;;12.85;;
56075;SDS011;41951;49.022;12.066;2024-01-30T05:24:32;22.90;;;12.88;;
56075;SDS011;41951;49.022;12.066;2024-01-30T05:26:57;23.20;;;12.38;;
56075;SDS011;41951;49.022;12.066;2024-01-30T05:29:23;21.42;;;11.80;;
56075;SDS011;41951;49.022;12.066;2024-01-30T05:31:49;23.48;;;12.38;;
56075;SDS011;41951;49.022;12.066;2024-01-30T05:34:15;19.85;;;12.45;;
56075;SDS011;41951;49.022;12.066;2024-01-30T05:36:41;21.73;;;12.60;;
56075;SDS011;41951;49.022;12.066;2024-01-30T05:39:06;25.13;;;13.55;;
56075;SDS011;41951;49.022;12.066;2024-01-30T05:41:32;21.50;;;11.63;;
56075;SDS011;41951;49.022;12.066;2024-01-30T05:43:58;23.60;;;11.30;;
56075;SDS011;41951;49.022;12.066;2024-01-30T05:46:23;20.50;;;11.85;;
56075;SDS011;41951;49.022;12.066;2024-01-30T05:48:49;22.30;;;12.35;;
56075;SDS011;41951;49.022;12.066;2024-01-30T05:51:14;22.25;;;12.30;;
56075;SDS011;41951;49.022;12.066;2024-01-30T05:53:40;23.35;;;12.63;;
56075;SDS011;41951;49.022;12.066;2024-01-30T05:56:06;18.90;;;11.38;;
56075;SDS011;41951;49.022;12.066;2024-01-30T05:58:32;26.40;;;12.63;;
56075;SDS011;41951;49.022;12.066;2024-01-30T06:00:57;25.80;;;13.60;;
56075;SDS011;41951;49.022;12.066;2024-01-30T06:03:23;24.42;;;12.90;;
56075;SDS011;41951;49.022;12.066;2024-01-30T06:05:48;25.85;;;12.43;;
56075;SDS011;41951;49.022;12.066;2024-01-30T06:08:14;26.17;;;12.68;;
56075;SDS011;41951;49.022;12.066;2024-01-30T06:10:40;25.65;;;13.77;;
56075;SDS011;41951;49.022;12.066;2024-01-30T06:13:05;25.85;;;14.18;;
56075;SDS011;41951;49.022;12.066;2024-01-30T06:15:31;22.65;;;12.88;;
56075;SDS011;41951;49.022;12.066;2024-01-30T06:17:57;25.75;;;14.25;;
56075;SDS011;41951;49.022;12.066;2024-01-30T06:20:23;26.77;;;15.43;;
56075;SDS011;41951;49.022;12.066;2024-01-30T06:22:49;25.45;;;14.73;;
56075;SDS011;41951;49.022;12.066;2024-01-30T06:25:15;27.05;;;14.32;;
56075;SDS011;41951;49.022;12.066;2024-01-30T06:27:41;26.60;;;14.80;;
56075;SDS011;41951;49.022;12.066;2024-01-30T06:30:08;25.42;;;14.25;;
56075;SDS011;41951;49.022;12.066;2024-01-30T06:32:35;26.27;;;14.70;;
56075;SDS011;41951;49.022;12.066;2024-01-30T06:35:01;26.73;;;14.85;;
56075;SDS011;41951;49.022;12.066;2024-01-30T06:37:27;27.60;;;14.55;;
56075;SDS011;41951;49.022;12.066;2024-01-30T06:39:52;26.63;;;15.23;;
56075;SDS011;41951;49.022;12.066;2024-01-30T06:42:18;36.05;;;15.52;;
56075;SDS011;41951;49.022;12.066;2024-01-30T06:44:44;27.73;;;15.23;;
56075;SDS011;41951;49.022;12.066;2024-01-30T06:47:10;28.75;;;16.55;;
56075;SDS011;41951;49.022;12.066;2024-01-30T06:49:35;26.98;;;14.25;;
56075;SDS011;41951;49.022;12.066;2024-01-30T06:52:06;29.80;;;15.65;;
56075;SDS011;41951;49.022;12.066;2024-01-30T06:54:31;29.58;;;15.85;;
56075;SDS011;41951;49.022;12.066;2024-01-30T06:56:58;30.40;;;15.93;;
56075;SDS011;41951;49.022;12.066;2024-01-30T06:59:23;28.52;;;15.90;;
56075;SDS011;41951;49.022;12.066;2024-01-30T07:01:49;25.55;;;15.43;;
56075;SDS011;41951;49.022;12.066;2024-01-30T07:04:14;28.30;;;15.63;;
56075;SDS011;41951;49.022;12.066;2024-01-30T07:06:41;30.20;;;15.77;;
56075;SDS011;41951;49.022;12.066;2024-01-30T07:09:07;30.83;;;16.65;;
56075;SDS011;41951;49.022;12.066;2024-01-30T07:11:33;31.40;;;16.30;;
56075;SDS011;41951;49.022;12.066;2024-01-30T07:13:59;33.83;;;17.70;;
56075;SDS011;41951;49.022;12.066;2024-01-30T07:16:24;32.97;;;16.85;;
56075;SDS011;41951;49.022;12.066;2024-01-30T07:18:50;30.13;;;17.60;;
56075;SDS011;41951;49.022;12.066;2024-01-30T07:21:16;32.17;;;18.00;;
56075;SDS011;41951;49.022;12.066;2024-01-30T07:23:42;32.33;;;17.60;;
56075;SDS011;41951;49.022;12.066;2024-01-30T07:26:08;33.08;;;15.93;;
56075;SDS011;41951;49.022;12.066;2024-01-30T07:28:34;28.00;;;16.42;;
56075;SDS011;41951;49.022;12.066;2024-01-30T07:31:00;31.23;;;17.25;;
56075;SDS011;41951;49.022;12.066;2024-01-30T07:33:26;29.23;;;15.30;;
56075;SDS011;41951;49.022;12.066;2024-01-30T07:35:52;29.83;;;16.13;;
56075;SDS011;41951;49.022;12.066;2024-01-30T07:38:18;27.63;;;15.45;;
56075;SDS011;41951;49.022;12.066;2024-01-30T07:40:44;30.85;;;16.80;;
56075;SDS011;41951;49.022;12.066;2024-01-30T07:43:10;27.83;;;16.45;;
56075;SDS011;41951;49.022;12.066;2024-01-30T07:45:36;31.60;;;16.42;;
56075;SDS011;41951;49.022;12.066;2024-01-30T07:48:03;26.52;;;15.25;;
56075;SDS011;41951;49.022;12.066;2024-01-30T07:50:30;37.38;;;15.68;;
56075;SDS011;41951;49.022;12.066;2024-01-30T07:52:55;29.00;;;15.20;;
56075;SDS011;41951;49.022;12.066;2024-01-30T07:55:21;28.45;;;15.57;;
56075;SDS011;41951;49.022;12.066;2024-01-30T07:57:50;27.67;;;15.45;;
56075;SDS011;41951;49.022;12.066;2024-01-30T08:00:21;33.08;;;16.70;;
56075;SDS011;41951;49.022;12.066;2024-01-30T08:02:47;33.35;;;17.40;;
56075;SDS011;41951;49.022;12.066;2024-01-30T08:05:12;28.85;;;16.55;;
56075;SDS011;41951;49.022;12.066;2024-01-30T08:07:40;29.95;;;16.05;;
56075;SDS011;41951;49.022;12.066;2024-01-30T08:10:06;39.03;;;21.02;;
56075;SDS011;41951;49.022;12.066;2024-01-30T08:12:32;42.33;;;22.17;;
56075;SDS011;41951;49.022;12.066;2024-01-30T08:14:58;31.52;;;16.92;;
56075;SDS011;41951;49.022;12.066;2024-01-30T08:17:23;29.00;;;17.00;;
56075;SDS011;41951;49.022;12.066;2024-01-30T08:19:49;29.60;;;16.33;;
56075;SDS011;41951;49.022;12.066;2024-01-30T08:22:14;30.85;;;16.10;;
56075;SDS011;41951;49.022;12.066;2024-01-30T08:24:40;29.90;;;16.67;;
56075;SDS011;41951;49.022;12.066;2024-01-30T08:27:06;28.15;;;16.02;;
56075;SDS011;41951;49.022;12.066;2024-01-30T08:29:34;31.90;;;17.75;;
56075;SDS011;41951;49.022;12.066;2024-01-30T08:32:00;31.10;;;16.75;;
56075;SDS011;41951;49.022;12.066;2024-01-30T08:34:26;32.63;;;18.33;;
56075;SDS011;41951;49.022;12.066;2024-01-30T08:36:52;33.40;;;17.25;;
56075;SDS011;41951;49.022;12.066;2024-01-30T08:39:18;34.33;;;17.30;;
56075;SDS011;41951;49.022;12.066;2024-01-30T08:41:43;35.58;;;19.75;;
56075;SDS011;41951;49.022;12.066;2024-01-30T08:44:09;37.72;;;20.80;;
56075;SDS011;41951;49.022;12.066;2024-01-30T08:46:36;31.75;;;17.98;;
56075;SDS011;41951;49.022;12.066;2024-01-30T08:49:01;30.75;;;17.25;;
56075;SDS011;41951;49.022;12.066;2024-01-30T08:51:29;28.23;;;17.13;;
56075;SDS011;41951;49.022;12.066;2024-01-30T08:53:55;29.20;;;16.70;;
56075;SDS011;41951;49.022;12.066;2024-01-30T08:56:21;29.90;;;17.70;;
56075;SDS011;41951;49.022;12.066;2024-01-30T08:58:47;32.60;;;17.20;;
56075;SDS011;41951;49.022;12.066;2024-01-30T09:01:13;29.90;;;17.63;;
56075;SDS011;41951;49.022;12.066;2024-01-30T09:03:39;34.08;;;19.75;;
56075;SDS011;41951;49.022;12.066;2024-01-30T09:06:09;30.38;;;17.80;;
56075;SDS011;41951;49.022;12.066;2024-01-30T09:08:35;31.02;;;17.55;;
56075;SDS011;41951;49.022;12.066;2024-01-30T09:11:01;34.08;;;17.42;;
56075;SDS011;41951;49.022;12.066;2024-01-30T09:13:27;32.55;;;18.38;;
56075;SDS011;41951;49.022;12.066;2024-01-30T09:15:52;32.65;;;18.20;;
56075;SDS011;41951;49.022;12.066;2024-01-30T09:18:18;35.20;;;18.98;;
56075;SDS011;41951;49.022;12.066;2024-01-30T09:20:44;30.13;;;18.13;;
56075;SDS011;41951;49.022;12.066;2024-01-30T09:23:12;32.35;;;18.10;;
56075;SDS011;41951;49.022;12.066;2024-01-30T09:25:38;31.42;;;18.20;;
56075;SDS011;41951;49.022;12.066;2024-01-30T09:28:03;28.95;;;16.88;;
56075;SDS011;41951;49.022;12.066;2024-01-30T09:30:29;32.55;;;18.92;;
56075;SDS011;41951;49.022;12.066;2024-01-30T09:32:55;30.17;;;18.10;;
56075;SDS011;41951;49.022;12.066;2024-01-30T09:35:20;32.80;;;18.80;;
56075;SDS011;41951;49.022;12.066;2024-01-30T09:37:46;32.40;;;18.92;;
56075;SDS011;41951;49.022;12.066;2024-01-30T09:40:13;46.28;;;22.35;;
56075;SDS011;41951;49.022;12.066;2024-01-30T09:42:39;31.67;;;17.85;;
56075;SDS011;41951;49.022;12.066;2024-01-30T09:45:07;33.75;;;17.40;;
56075;SDS011;41951;49.022;12.066;2024-01-30T09:47:37;32.85;;;18.65;;
56075;SDS011;41951;49.022;12.066;2024-01-30T09:50:09;29.13;;;17.08;;
56075;SDS011;41951;49.022;12.066;2024-01-30T09:52:35;36.05;;;18.73;;
56075;SDS011;41951;49.022;12.066;2024-01-30T09:55:01;34.00;;;18.38;;
56075;SDS011;41951;49.022;12.066;2024-01-30T09:57:27;33.10;;;18.52;;
56075;SDS011;41951;49.022;12.066;2024-01-30T09:59:53;32.33;;;17.95;;
56075;SDS011;41951;49.022;12.066;2024-01-30T10:02:22;32.42;;;18.02;;
56075;SDS011;41951;49.022;12.066;2024-01-30T10:04:48;27.95;;;17.75;;
56075;SDS011;41951;49.022;12.066;2024-01-30T10:07:15;31.00;;;18.65;;
56075;SDS011;41951;49.022;12.066;2024-01-30T10:09:41;33.15;;;19.52;;
56075;SDS011;41951;49.022;12.066;2024-01-30T10:12:06;34.10;;;17.85;;
56075;SDS011;41951;49.022;12.066;2024-01-30T10:14:34;32.53;;;17.20;;
56075;SDS011;41951;49.022;12.066;2024-01-30T10:17:03;38.35;;;18.30;;
56075;SDS011;41951;49.022;12.066;2024-01-30T10:19:30;30.42;;;18.13;;
56075;SDS011;41951;49.022;12.066;2024-01-30T10:21:56;31.45;;;17.70;;
56075;SDS011;41951;49.022;12.066;2024-01-30T10:24:25;34.63;;;18.42;;
56075;SDS011;41951;49.022;12.066;2024-01-30T10:26:51;68.82;;;35.15;;
56075;SDS011;41951;49.022;12.066;2024-01-30T10:29:18;48.70;;;27.83;;
56075;SDS011;41951;49.022;12.066;2024-01-30T10:31:44;32.47;;;19.83;;
56075;SDS011;41951;49.022;12.066;2024-01-30T10:34:09;39.55;;;20.13;;
56075;SDS011;41951;49.022;12.066;2024-01-30T10:36:38;35.15;;;19.88;;
56075;SDS011;41951;49.022;12.066;2024-01-30T10:39:06;32.65;;;18.77;;
56075;SDS011;41951;49.022;12.066;2024-01-30T10:41:34;29.30;;;18.88;;
56075;SDS011;41951;49.022;12.066;2024-01-30T10:44:10;31.42;;;18.35;;
56075;SDS011;41951;49.022;12.066;2024-01-30T10:46:37;31.70;;;19.05;;
56075;SDS011;41951;49.022;12.066;2024-01-30T10:49:04;34.10;;;19.33;;
56075;SDS011;41951;49.022;12.066;2024-01-30T10:51:30;33.28;;;19.27;;
56075;SDS011;41951;49.022;12.066;2024-01-30T10:53:57;37.13;;;19.50;;
56075;SDS011;41951;49.022;12.066;2024-01-30T10:56:23;36.65;;;18.77;;
56075;SDS011;41951;49.022;12.066;2024-01-30T10:58:53;33.78;;;18.60;;
56075;SDS011;41951;49.022;12.066;2024-01-30T11:01:22;33.28;;;18.77;;
56075;SDS011;41951;49.022;12.066;2024-01-30T11:03:51;31.92;;;18.58;;
56075;SDS011;41951;49.022;12.066;2024-01-30T11:06:17;32.15;;;18.38;;
56075;SDS011;41951;49.022;12.066;2024-01-30T11:08:46;34.30;;;18.23;;
56075;SDS011;41951;49.022;12.066;2024-01-30T11:11:24;33.15;;;19.52;;
56075;SDS011;41951;49.022;12.066;2024-01-30T11:13:50;29.67;;;19.10;;
56075;SDS011;41951;49.022;12.066;2024-01-30T11:16:15;28.98;;;18.70;;
56075;SDS011;41951;49.022;12.066;2024-01-30T11:18:41;33.90;;;19.05;;
56075;SDS011;41951;49.022;12.066;2024-01-30T11:21:06;32.50;;;18.95;;
56075;SDS011;41951;49.022;12.066;2024-01-30T11:23:33;39.88;;;19.42;;
56075;SDS011;41951;49.022;12.066;2024-01-30T11:25:59;29.50;;;18.27;;
56075;SDS011;41951;49.022;12.066;2024-01-30T11:28:25;32.67;;;19.75;;
56075;SDS011;41951;49.022;12.066;2024-01-30T11:31:04;32.20;;;19.20;;
56075;SDS011;41951;49.022;12.066;2024-01-30T11:33:32;32.78;;;18.08;;
56075;SDS011;41951;49.022;12.066;2024-01-30T11:35:58;36.55;;;19.75;;
56075;SDS011;41951;49.022;12.066;2024-01-30T11:38:25;32.33;;;19.38;;
56075;SDS011;41951;49.022;12.066;2024-01-30T11:40:53;30.88;;;17.92;;
56075;SDS011;41951;49.022;12.066;2024-01-30T11:43:22;29.85;;;17.85;;
56075;SDS011;41951;49.022;12.066;2024-01-30T11:45:48;34.35;;;19.45;;
56075;SDS011;41951;49.022;12.066;2024-01-30T11:48:14;29.65;;;18.55;;
56075;SDS011;41951;49.022;12.066;2024-01-30T11:50:40;30.42;;;18.02;;
56075;SDS011;41951;49.022;12.066;2024-01-30T11:53:06;32.65;;;19.38;;
56075;SDS011;41951;49.022;12.066;2024-01-30T11:55:32;31.08;;;18.45;;
56075;SDS011;41951;49.022;12.066;2024-01-30T11:57:58;33.03;;;18.88;;
56075;SDS011;41951;49.022;12.066;2024-01-30T12:00:24;32.05;;;18.58;;
56075;SDS011;41951;49.022;12.066;2024-01-30T12:02:50;31.90;;;17.80;;
56075;SDS011;41951;49.022;12.066;2024-01-30T12:05:20;32.03;;;18.53;;
56075;SDS011;41951;49.022;12.066;2024-01-30T12:07:49;30.30;;;18.95;;
56075;SDS011;41951;49.022;12.066;2024-01-30T12:10:15;29.02;;;17.15;;
56075;SDS011;41951;49.022;12.066;2024-01-30T12:12:41;30.65;;;18.90;;
56075;SDS011;41951;49.022;12.066;2024-01-30T12:15:09;33.40;;;17.27;;
56075;SDS011;41951;49.022;12.066;2024-01-30T12:17:35;29.15;;;17.25;;
56075;SDS011;41951;49.022;12.066;2024-01-30T12:20:08;32.85;;;17.90;;
56075;SDS011;41951;49.022;12.066;2024-01-30T12:22:36;31.00;;;16.95;;
56075;SDS011;41951;49.022;12.066;2024-01-30T12:25:07;29.83;;;17.02;;
56075;SDS011;41951;49.022;12.066;2024-01-30T12:27:37;25.83;;;16.08;;
56075;SDS011;41951;49.022;12.066;2024-01-30T12:32:36;31.60;;;17.08;;
56075;SDS011;41951;49.022;12.066;2024-01-30T12:35:02;28.77;;;16.70;;
56075;SDS011;41951;49.022;12.066;2024-01-30T12:37:29;28.17;;;16.75;;
56075;SDS011;41951;49.022;12.066;2024-01-30T12:39:55;27.45;;;16.65;;
56075;SDS011;41951;49.022;12.066;2024-01-30T12:42:21;31.42;;;17.33;;
56075;SDS011;41951;49.022;12.066;2024-01-30T12:44:47;28.50;;;16.48;;
56075;SDS011;41951;49.022;12.066;2024-01-30T12:47:14;30.50;;;16.90;;
56075;SDS011;41951;49.022;12.066;2024-01-30T12:49:41;29.10;;;16.45;;
56075;SDS011;41951;49.022;12.066;2024-01-30T12:52:08;27.27;;;16.27;;
56075;SDS011;41951;49.022;12.066;2024-01-30T12:54:34;31.25;;;17.25;;
56075;SDS011;41951;49.022;12.066;2024-01-30T12:56:59;27.88;;;16.75;;
56075;SDS011;41951;49.022;12.066;2024-01-30T12:59:25;26.88;;;16.92;;
56075;SDS011;41951;49.022;12.066;2024-01-30T13:01:50;25.92;;;14.63;;
56075;SDS011;41951;49.022;12.066;2024-01-30T13:04:16;24.60;;;16.25;;
56075;SDS011;41951;49.022;12.066;2024-01-30T13:06:42;27.38;;;16.75;;
56075;SDS011;41951;49.022;12.066;2024-01-30T13:09:07;25.02;;;15.80;;
56075;SDS011;41951;49.022;12.066;2024-01-30T13:11:33;26.65;;;15.63;;
56075;SDS011;41951;49.022;12.066;2024-01-30T13:13:59;25.58;;;15.90;;
56075;SDS011;41951;49.022;12.066;2024-01-30T13:16:25;27.90;;;14.73;;
56075;SDS011;41951;49.022;12.066;2024-01-30T13:18:50;31.17;;;16.23;;
56075;SDS011;41951;49.022;12.066;2024-01-30T13:21:16;28.00;;;15.70;;
56075;SDS011;41951;49.022;12.066;2024-01-30T13:23:42;26.77;;;15.40;;
56075;SDS011;41951;49.022;12.066;2024-01-30T13:26:08;27.95;;;14.57;;
56075;SDS011;41951;49.022;12.066;2024-01-30T13:28:34;25.27;;;15.50;;
56075;SDS011;41951;49.022;12.066;2024-01-30T13:30:59;22.35;;;14.57;;
56075;SDS011;41951;49.022;12.066;2024-01-30T13:33:26;24.92;;;14.75;;
56075;SDS011;41951;49.022;12.066;2024-01-30T13:35:51;27.63;;;16.27;;
56075;SDS011;41951;49.022;12.066;2024-01-30T13:38:17;27.10;;;15.88;;
56075;SDS011;41951;49.022;12.066;2024-01-30T13:40:42;25.83;;;14.68;;
56075;SDS011;41951;49.022;12.066;2024-01-30T13:43:08;25.05;;;15.07;;
56075;SDS011;41951;49.022;12.066;2024-01-30T13:45:34;27.17;;;15.07;;
56075;SDS011;41951;49.022;12.066;2024-01-30T13:48:00;26.50;;;16.02;;
56075;SDS011;41951;49.022;12.066;2024-01-30T13:50:26;26.67;;;15.85;;
56075;SDS011;41951;49.022;12.066;2024-01-30T13:52:51;27.80;;;17.00;;
56075;SDS011;41951;49.022;12.066;2024-01-30T13:55:17;29.35;;;16.63;;
56075;SDS011;41951;49.022;12.066;2024-01-30T13:57:43;30.33;;;16.80;;
56075;SDS011;41951;49.022;12.066;2024-01-30T14:00:08;28.17;;;16.00;;
56075;SDS011;41951;49.022;12.066;2024-01-30T14:02:34;28.80;;;16.65;;
56075;SDS011;41951;49.022;12.066;2024-01-30T14:05:00;27.85;;;17.15;;
56075;SDS011;41951;49.022;12.066;2024-01-30T14:07:26;29.13;;;16.95;;